Time;durP1;ratioP1;P1;durP2;ratioP2;P2;SDS_P1;SDS_P2;PMS_P1;PMS_P2;Temp;Humidity;BMP_temperature;BMP_pressure;BME280_temperature;BME280_humidity;BME280_pressure;Samples;Min_cycle;Max_cycle;Signal;HPM_P1;HPM_P2
2023/09/01 00:01:54;;;;;;;0.20;0.20;;;;;;;17.03;71.95;99665.06;4987117;28;20038;-70
2023/09/01 00:04:35;;;;;;;0.20;0.20;;;;;;;16.98;73.27;99662.41;4983841;28;20050;-70
2023/09/01 00:07:01;;;;;;;0.20;0.20;;;;;;;16.93;73.31;99668.09;4982838;28;20054;-70
2023/09/01 00:09:27;;;;;;;0.20;0.20;;;;;;;16.92;73.03;99670.03;4984020;28;20046;-69
2023/09/01 00:11:53;;;;;;;0.20;0.20;;;;;;;16.92;73.78;99666.47;4981042;28;20097;-69
2023/09/01 00:14:21;;;;;;;0.17;0.17;;;;;;;16.92;74.04;99667.25;4984527;28;20517;-69
2023/09/01 00:16:47;;;;;;;0.10;0.10;;;;;;;16.92;74.32;99667.25;4986822;28;20432;-69
2023/09/01 00:19:13;;;;;;;0.10;0.10;;;;;;;16.91;74.54;99665.63;4987582;28;20050;-69
2023/09/01 00:21:39;;;;;;;0.20;0.20;;;;;;;16.90;74.94;99660.47;4988327;28;20586;-69
2023/09/01 00:24:06;;;;;;;0.20;0.20;;;;;;;16.88;75.44;99660.78;4990707;28;20082;-68
2023/09/01 00:26:33;;;;;;;0.38;0.22;;;;;;;16.86;75.67;99663.88;4985806;28;20046;-68
2023/09/01 00:28:59;;;;;;;0.20;0.20;;;;;;;16.85;76.09;99661.41;4984900;28;20093;-69
2023/09/01 00:31:27;;;;;;;0.20;0.20;;;;;;;16.83;76.69;99663.69;4985841;28;20066;-67
2023/09/01 00:33:53;;;;;;;0.20;0.20;;;;;;;16.70;76.91;99648.84;4986617;28;20092;-69
2023/09/01 00:36:19;;;;;;;0.20;0.20;;;;;;;16.72;77.11;99661.22;4987056;28;20054;-69
2023/09/01 00:38:45;;;;;;;0.17;0.17;;;;;;;16.69;77.56;99670.13;4987463;28;20536;-69
2023/09/01 00:41:11;;;;;;;0.20;0.20;;;;;;;16.68;77.61;99667.69;4988074;28;20073;-69
2023/09/01 00:43:37;;;;;;;0.20;0.20;;;;;;;16.63;77.70;99663.16;4987213;28;20050;-68
2023/09/01 00:46:03;;;;;;;0.20;0.20;;;;;;;16.59;78.44;99668.47;4984811;28;20118;-68
2023/09/01 00:48:31;;;;;;;0.20;0.20;;;;;;;16.56;78.64;99665.53;4970906;28;20517;-69
2023/09/01 00:50:57;;;;;;;0.17;0.17;;;;;;;16.54;79.02;99660.31;4988499;28;20517;-70
2023/09/01 00:53:25;;;;;;;0.13;0.13;;;;;;;16.52;78.98;99659.03;4988385;28;20587;-69
2023/09/01 00:55:52;;;;;;;0.20;0.20;;;;;;;16.48;79.49;99658.84;4986473;28;20521;-70
2023/09/01 00:58:19;;;;;;;0.20;0.20;;;;;;;16.44;79.64;99657.88;4987797;28;20535;-69
2023/09/01 01:00:45;;;;;;;0.20;0.20;;;;;;;16.42;79.78;99657.38;4985375;28;20259;-69
2023/09/01 01:03:12;;;;;;;0.20;0.20;;;;;;;16.42;79.79;99658.16;4986931;28;20065;-69
2023/09/01 01:05:48;;;;;;;0.20;0.20;;;;;;;16.42;80.05;99662.88;5013890;28;20050;-70
2023/09/01 01:08:23;;;;;;;0.20;0.20;;;;;;;16.38;80.38;99661.88;4982841;28;20108;-69
2023/09/01 01:10:57;;;;;;;0.20;0.20;;;;;;;16.36;80.42;99661.38;4966978;28;20424;-69
2023/09/01 01:13:32;;;;;;;0.10;0.10;;;;;;;16.34;80.79;99655.38;4968078;28;20062;-70
2023/09/01 01:15:59;;;;;;;0.20;0.20;;;;;;;16.30;80.60;99657.94;4969597;28;20038;-70
2023/09/01 01:18:28;;;;;;;0.20;0.20;;;;;;;16.27;80.82;99659.41;4981431;28;20473;-68
2023/09/01 01:21:06;;;;;;;0.20;0.20;;;;;;;16.22;81.25;99659.53;4967505;28;20043;-69
2023/09/01 01:23:34;;;;;;;0.13;0.13;;;;;;;16.18;81.58;99647.50;4947014;28;20438;-69
2023/09/01 01:26:00;;;;;;;0.20;0.20;;;;;;;16.08;81.13;99633.97;4964168;28;20078;-69
2023/09/01 01:28:27;;;;;;;0.10;0.10;;;;;;;16.13;81.83;99644.88;4981962;28;20370;-69
2023/09/01 01:30:53;;;;;;;0.10;0.10;;;;;;;16.13;81.95;99653.97;4985134;28;20042;-71
2023/09/01 01:33:31;;;;;;;0.20;0.20;;;;;;;16.10;82.26;99656.56;4983985;28;20097;-70
2023/09/01 01:36:10;;;;;;;0.20;0.20;;;;;;;16.07;82.53;99657.16;4983391;28;20713;-69
2023/09/01 01:38:41;;;;;;;0.20;0.20;;;;;;;15.67;82.80;99600.78;4983870;28;20517;-69
2023/09/01 01:41:11;;;;;;;0.20;0.20;;;;;;;16.01;83.06;99645.47;4988084;28;20046;-69
2023/09/01 01:43:39;;;;;;;0.20;0.20;;;;;;;16.04;82.76;99655.88;4986482;28;20046;-70
2023/09/01 01:46:06;;;;;;;0.17;0.17;;;;;;;16.04;83.09;99646.78;4986767;28;20046;-68
2023/09/01 01:48:36;;;;;;;0.10;0.10;;;;;;;16.02;83.10;99661.69;4986246;28;20513;-70
2023/09/01 01:51:05;;;;;;;0.10;0.10;;;;;;;16.01;82.99;99653.75;4984386;28;20125;-68
2023/09/01 01:53:33;;;;;;;0.20;0.20;;;;;;;15.98;83.18;99651.59;4988109;28;20069;-71
2023/09/01 01:56:00;;;;;;;0.10;0.10;;;;;;;15.94;83.49;99653.38;4984033;28;20050;-69
2023/09/01 01:58:27;;;;;;;0.20;0.20;;;;;;;15.91;83.85;99646.53;4984060;28;20042;-69
2023/09/01 02:00:53;;;;;;;0.20;0.20;;;;;;;15.89;83.74;99654.31;4984010;28;20171;-70
2023/09/01 02:03:19;;;;;;;0.20;0.20;;;;;;;15.81;83.94;99653.09;4986984;28;20521;-69
2023/09/01 02:05:46;;;;;;;0.10;0.10;;;;;;;15.88;83.83;99663.69;4983756;28;20054;-68
2023/09/01 02:08:12;;;;;;;0.43;0.20;;;;;;;15.87;84.05;99659.28;4983315;28;20049;-67
2023/09/01 02:10:38;;;;;;;0.10;0.10;;;;;;;15.84;84.02;99659.94;4984349;28;20572;-69
2023/09/01 02:13:05;;;;;;;0.20;0.20;;;;;;;15.82;84.36;99653.91;4986870;28;20129;-70
2023/09/01 02:15:31;;;;;;;;;;;;;;;15.81;84.14;99666.88;4969730;28;20052;-68
2023/09/01 02:18:00;;;;;;;0.17;0.17;;;;;;;15.82;84.11;99659.44;4984341;28;19925;-69
2023/09/01 02:20:28;;;;;;;0.10;0.10;;;;;;;15.79;84.06;99657.31;4984290;28;20046;-71
2023/09/01 02:23:16;;;;;;;0.20;0.20;;;;;;;15.76;84.19;99661.50;4983922;28;20121;-70
2023/09/01 02:25:43;;;;;;;0.10;0.10;;;;;;;15.73;84.40;99668.44;4986508;28;20057;-69
2023/09/01 02:28:11;;;;;;;0.20;0.20;;;;;;;15.70;84.56;99663.56;4985756;28;20161;-69
2023/09/01 02:30:37;;;;;;;0.10;0.10;;;;;;;15.70;84.86;99668.25;5000221;28;20058;-68
2023/09/01 02:33:04;;;;;;;0.10;0.10;;;;;;;15.64;84.92;99659.31;4986314;28;20584;-69
2023/09/01 02:35:30;;;;;;;0.20;0.20;;;;;;;15.68;85.18;99663.06;4979774;28;20051;-70
2023/09/01 02:37:56;;;;;;;0.10;0.10;;;;;;;15.67;85.17;99655.09;4985640;28;20069;-69
2023/09/01 02:40:24;;;;;;;0.20;0.20;;;;;;;15.66;85.29;99659.81;4985406;28;20102;-70
2023/09/01 02:42:53;;;;;;;0.20;0.20;;;;;;;15.62;85.48;99658.81;4983218;28;20046;-70
2023/09/01 02:45:22;;;;;;;0.20;0.20;;;;;;;15.60;85.45;99661.03;4985360;28;20046;-70
2023/09/01 02:47:48;;;;;;;0.10;0.10;;;;;;;15.60;85.76;99661.03;4987428;28;20571;-70
2023/09/01 02:50:14;;;;;;;0.20;0.20;;;;;;;15.61;85.66;99673.72;4984418;28;20038;-68
2023/09/01 02:52:40;;;;;;;0.20;0.20;;;;;;;15.55;85.89;99664.75;5000462;28;20053;-69
2023/09/01 02:55:08;;;;;;;0.20;0.20;;;;;;;15.58;85.79;99671.56;4982294;28;20137;-70
2023/09/01 02:57:35;;;;;;;0.20;0.20;;;;;;;15.57;85.81;99673.50;4984144;28;20337;-70
2023/09/01 03:00:14;;;;;;;0.10;0.10;;;;;;;15.57;85.94;99675.44;4983778;28;20079;-70
2023/09/01 03:02:42;;;;;;;0.20;0.20;;;;;;;15.55;85.39;99666.69;4986363;28;20065;-69
2023/09/01 03:05:10;;;;;;;0.20;0.20;;;;;;;15.56;85.75;99668.31;4978927;28;20093;-70
2023/09/01 03:07:36;;;;;;;0.20;0.20;;;;;;;15.56;85.86;99679.31;4979442;28;20054;-70
2023/09/01 03:10:06;;;;;;;0.20;0.20;;;;;;;15.57;85.77;99678.19;4980351;28;20054;-70
2023/09/01 03:12:33;;;;;;;0.20;0.20;;;;;;;15.61;85.70;99670.97;4969010;28;20430;-70
2023/09/01 03:14:59;;;;;;;0.20;0.20;;;;;;;15.66;85.71;99673.59;4968379;28;20134;-70
2023/09/01 03:17:25;;;;;;;0.20;0.20;;;;;;;15.70;85.45;99671.81;4988048;28;20046;-68
2023/09/01 03:19:53;;;;;;;0.20;0.20;;;;;;;15.64;85.04;99659.31;4984310;28;20421;-70
2023/09/01 03:22:19;;;;;;;;;;;;;;;15.80;85.20;99680.97;4985343;28;20046;-70
2023/09/01 03:24:45;;;;;;;0.28;0.28;;;;;;;15.81;84.47;99674.34;4985084;28;20719;-69
2023/09/01 03:27:14;;;;;;;0.20;0.20;;;;;;;15.88;84.52;99682.97;4984961;28;20054;-70
2023/09/01 03:29:42;;;;;;;0.20;0.20;;;;;;;15.91;84.34;99682.38;4983478;28;20050;-70
2023/09/01 03:32:10;;;;;;;0.20;0.20;;;;;;;15.94;83.90;99678.19;4983554;28;20104;-69
2023/09/01 03:34:36;;;;;;;;;;;;;;;16.01;84.11;99686.84;4965903;28;20592;-70
2023/09/01 03:37:04;;;;;;;0.30;0.30;;;;;;;16.03;83.50;99687.34;4981358;28;19937;-70
2023/09/01 03:39:30;;;;;;;0.20;0.20;;;;;;;16.08;83.21;99683.59;4984001;28;20043;-70
2023/09/01 03:41:56;;;;;;;0.20;0.20;;;;;;;16.14;83.36;99682.38;4981884;28;20042;-69
2023/09/01 03:44:22;;;;;;;0.20;0.20;;;;;;;16.22;83.13;99684.34;4980614;28;20104;-70
2023/09/01 03:46:49;;;;;;;0.20;0.20;;;;;;;16.27;82.72;99684.22;4983322;28;20510;-70
2023/09/01 03:49:16;;;;;;;0.20;0.20;;;;;;;16.35;82.56;99685.41;4990757;28;20112;-70
2023/09/01 03:51:43;;;;;;;0.20;0.20;;;;;;;16.41;81.87;99694.38;5003481;28;20082;-70
2023/09/01 03:54:10;;;;;;;0.20;0.20;;;;;;;16.50;81.82;99697.97;4969888;28;20120;-70
2023/09/01 03:56:36;;;;;;;0.20;0.20;;;;;;;16.59;81.10;99701.59;5002757;28;20183;-70
2023/09/01 03:59:03;;;;;;;0.30;0.30;;;;;;;16.69;80.50;99699.66;4986198;28;20050;-69
2023/09/01 04:01:29;;;;;;;0.30;0.30;;;;;;;16.81;80.33;99696.31;4969115;28;20101;-69
2023/09/01 04:03:55;;;;;;;0.20;0.20;;;;;;;16.91;79.57;99687.72;4969356;28;20046;-69
2023/09/01 04:06:21;;;;;;;0.20;0.20;;;;;;;17.01;78.90;99703.22;4990660;28;20054;-70
2023/09/01 04:08:47;;;;;;;0.20;0.20;;;;;;;17.14;78.66;99698.72;4987182;28;20054;-70
2023/09/01 04:11:15;;;;;;;0.20;0.20;;;;;;;17.25;78.16;99694.53;4987784;28;20050;-70
2023/09/01 04:13:42;;;;;;;0.20;0.20;;;;;;;17.37;77.51;99701.34;4989588;28;20042;-70
2023/09/01 04:16:09;;;;;;;0.30;0.30;;;;;;;17.49;76.87;99698.75;4955360;28;20042;-70
2023/09/01 04:18:35;;;;;;;0.30;0.30;;;;;;;17.57;76.55;99692.44;4987923;28;20046;-71
2023/09/01 04:21:02;;;;;;;0.20;0.20;;;;;;;17.70;75.79;99692.59;4988054;28;20080;-70
2023/09/01 04:23:28;;;;;;;0.20;0.20;;;;;;;17.69;75.42;99691.78;4964398;28;20047;-70
2023/09/01 04:25:55;;;;;;;0.20;0.20;;;;;;;17.69;75.05;99694.56;4977513;28;20345;-69
2023/09/01 04:28:25;;;;;;;0.20;0.20;;;;;;;17.80;75.45;99697.78;4942490;28;20062;-70
2023/09/01 04:30:52;;;;;;;0.20;0.20;;;;;;;17.90;74.91;99693.88;4965362;28;20559;-70
2023/09/01 04:33:19;;;;;;;0.20;0.20;;;;;;;17.82;74.33;99698.28;4967530;28;20051;-68
2023/09/01 04:35:54;;;;;;;;;;;;;;;17.78;74.56;99696.47;4966631;28;20046;-70
2023/09/01 04:38:20;;;;;;;0.20;0.20;;;;;;;17.83;74.31;99696.34;4972160;28;20391;-69
2023/09/01 04:40:53;;;;;;;0.30;0.30;;;;;;;17.86;73.66;99690.16;4982632;28;20545;-70
2023/09/01 04:43:20;;;;;;;0.20;0.20;;;;;;;17.84;73.23;99690.47;4970442;28;20073;-70
2023/09/01 04:45:48;;;;;;;0.30;0.30;;;;;;;17.86;73.13;99679.09;4967282;28;20078;-71
2023/09/01 04:48:14;;;;;;;0.30;0.30;;;;;;;17.81;72.65;99671.75;4980529;28;20145;-70
2023/09/01 04:50:40;;;;;;;0.20;0.20;;;;;;;17.68;72.92;99659.75;4985980;28;20128;-68
2023/09/01 04:53:07;;;;;;;0.22;0.22;;;;;;;17.81;72.69;99670.97;4984369;28;20046;-70
2023/09/01 04:55:34;;;;;;;0.25;0.22;;;;;;;17.73;72.75;99653.25;4984660;28;20429;-70
2023/09/01 04:58:00;;;;;;;0.30;0.30;;;;;;;17.88;72.52;99673.25;4970056;28;20513;-70
2023/09/01 05:00:26;;;;;;;0.20;0.20;;;;;;;17.93;72.40;99675.81;4987651;28;20309;-70
2023/09/01 05:02:54;;;;;;;0.20;0.20;;;;;;;17.98;71.86;99667.34;4985834;28;20047;-70
2023/09/01 05:05:20;;;;;;;0.20;0.20;;;;;;;18.06;71.55;99660.22;4984128;28;20050;-70
2023/09/01 05:07:47;;;;;;;0.20;0.20;;;;;;;18.20;71.78;99673.88;4991803;28;20465;-70
2023/09/01 05:10:13;;;;;;;0.20;0.20;;;;;;;18.34;71.29;99670.88;5001101;28;20529;-70
2023/09/01 05:12:40;;;;;;;0.20;0.20;;;;;;;18.47;70.57;99685.66;4983888;28;20050;-71
2023/09/01 05:15:08;;;;;;;0.30;0.30;;;;;;;18.53;69.97;99687.91;4973167;28;20505;-71
2023/09/01 05:17:34;;;;;;;;;;;;;;;18.59;69.39;99690.50;4957930;28;20342;-72
2023/09/01 05:20:03;;;;;;;0.30;0.30;;;;;;;18.47;68.82;99667.09;4957610;28;19926;-72
2023/09/01 05:22:33;;;;;;;0.30;0.30;;;;;;;18.59;68.70;99685.78;4967632;28;20149;-72
2023/09/01 05:25:04;;;;;;;0.30;0.30;;;;;;;18.66;67.81;99685.25;4938683;28;20124;-72
2023/09/01 05:27:30;;;;;;;;;;;;;;;18.73;68.37;99688.31;4953627;28;20065;-71
2023/09/01 05:29:56;;;;;;;0.20;0.20;;;;;;;18.84;67.74;99691.53;4971142;28;20312;-71
2023/09/01 05:32:23;;;;;;;0.30;0.30;;;;;;;18.85;66.83;99691.19;4965449;28;20405;-71
2023/09/01 05:34:49;;;;;;;0.20;0.20;;;;;;;18.79;67.26;99694.47;4942788;28;20072;-71
2023/09/01 05:37:16;;;;;;;0.30;0.30;;;;;;;18.85;67.19;99688.41;4967511;28;20113;-70
2023/09/01 05:39:42;;;;;;;;;;;;;;;18.97;67.29;99684.94;4977609;28;20297;-71
2023/09/01 05:42:10;;;;;;;0.30;0.30;;;;;;;19.08;66.46;99690.13;4989241;28;20481;-72
2023/09/01 05:44:37;;;;;;;0.20;0.20;;;;;;;19.16;65.91;99683.72;4987228;28;20038;-73
2023/09/01 05:47:06;;;;;;;0.30;0.30;;;;;;;19.29;65.73;99678.28;4972179;28;20046;-71
2023/09/01 05:49:33;;;;;;;0.30;0.30;;;;;;;19.48;65.09;99692.47;4988443;28;20156;-71
2023/09/01 05:52:00;;;;;;;0.28;0.28;;;;;;;19.69;63.86;99686.09;4985933;28;20042;-71
2023/09/01 05:54:27;;;;;;;0.22;0.22;;;;;;;19.78;63.30;99688.78;4983954;28;20042;-70
2023/09/01 05:56:54;;;;;;;0.30;0.30;;;;;;;19.90;62.94;99685.25;4992567;28;20046;-70
2023/09/01 05:59:20;;;;;;;0.30;0.30;;;;;;;20.04;62.46;99688.56;4980057;28;20438;-71
2023/09/01 06:01:46;;;;;;;0.30;0.30;;;;;;;20.21;61.51;99687.59;4986070;28;20046;-71
2023/09/01 06:04:12;;;;;;;0.30;0.30;;;;;;;20.31;61.64;99691.91;4987337;28;20054;-71
2023/09/01 06:06:39;;;;;;;0.30;0.30;;;;;;;20.55;61.11;99695.88;4970995;28;20057;-71
2023/09/01 06:09:05;;;;;;;0.28;0.28;;;;;;;20.75;60.46;99687.78;4975458;28;20144;-70
2023/09/01 06:11:34;;;;;;;0.30;0.30;;;;;;;20.95;59.99;99686.88;4974549;28;20561;-71
2023/09/01 06:14:01;;;;;;;0.30;0.30;;;;;;;20.99;59.68;99689.78;4982440;28;20414;-73
2023/09/01 06:16:27;;;;;;;0.38;0.38;;;;;;;21.06;59.44;99689.22;4988325;28;20824;-70
2023/09/01 06:18:57;;;;;;;0.30;0.30;;;;;;;21.21;58.74;99690.44;4971236;28;20046;-69
2023/09/01 06:21:24;;;;;;;0.30;0.30;;;;;;;21.32;58.49;99688.81;4983555;28;20078;-71
2023/09/01 06:23:50;;;;;;;0.30;0.30;;;;;;;21.39;58.31;99685.44;4973708;28;20049;-70
2023/09/01 06:26:20;;;;;;;0.30;0.30;;;;;;;21.56;57.46;99689.94;4985649;28;20062;-71
2023/09/01 06:28:48;;;;;;;0.30;0.30;;;;;;;21.81;56.41;99674.00;4968254;28;20054;-71
2023/09/01 06:31:16;;;;;;;0.30;0.30;;;;;;;21.95;56.04;99690.25;4988792;28;20046;-71
2023/09/01 06:33:43;;;;;;;0.30;0.30;;;;;;;22.09;55.09;99687.09;4986249;28;20054;-68
2023/09/01 06:36:10;;;;;;;0.30;0.30;;;;;;;22.11;54.89;99683.94;4973334;28;20047;-70
2023/09/01 06:38:37;;;;;;;0.30;0.30;;;;;;;22.19;54.72;99688.53;4983431;28;20579;-72
2023/09/01 06:41:03;;;;;;;0.30;0.30;;;;;;;22.39;54.48;99689.44;4979109;28;20069;-73
2023/09/01 06:43:30;;;;;;;0.30;0.30;;;;;;;22.65;53.87;99684.56;4987434;28;20218;-69
2023/09/01 06:45:58;;;;;;;0.30;0.30;;;;;;;22.85;52.91;99693.00;4988052;28;20065;-72
2023/09/01 06:48:24;;;;;;;0.30;0.30;;;;;;;22.96;52.49;99688.50;4984769;28;20757;-70
2023/09/01 06:50:51;;;;;;;0.30;0.30;;;;;;;23.07;52.14;99688.75;4987140;28;20130;-70
2023/09/01 06:53:17;;;;;;;0.30;0.30;;;;;;;23.14;51.54;99686.09;4985388;28;20084;-69
2023/09/01 06:55:48;;;;;;;0.38;0.38;;;;;;;23.06;51.15;99687.91;4970973;28;20042;-70
2023/09/01 06:58:15;;;;;;;0.40;0.40;;;;;;;23.05;51.31;99696.66;4987458;28;20047;-70
2023/09/01 07:00:41;;;;;;;0.30;0.30;;;;;;;22.98;51.01;99679.75;4986106;28;20125;-71
2023/09/01 07:03:09;;;;;;;0.40;0.40;;;;;;;23.14;51.06;99707.63;4975644;28;20074;-70
2023/09/01 07:05:35;;;;;;;0.30;0.30;;;;;;;23.42;50.45;99698.31;4979733;28;20100;-70
2023/09/01 07:08:02;;;;;;;0.30;0.30;;;;;;;23.63;49.58;99695.97;4984519;28;20042;-70
2023/09/01 07:10:28;;;;;;;0.30;0.30;;;;;;;23.94;49.14;99690.59;4956822;28;20165;-68
2023/09/01 07:12:54;;;;;;;0.40;0.40;;;;;;;24.12;48.12;99690.16;4976795;28;21601;-71
2023/09/01 07:15:20;;;;;;;0.30;0.30;;;;;;;24.20;47.79;99695.53;4986876;28;20414;-71
2023/09/01 07:17:47;;;;;;;0.30;0.30;;;;;;;24.45;47.92;99703.53;4985508;28;20046;-72
2023/09/01 07:20:14;;;;;;;0.30;0.30;;;;;;;24.64;47.11;99702.69;4987369;28;20066;-71
2023/09/01 07:22:41;;;;;;;0.30;0.30;;;;;;;24.84;46.44;99699.84;4986178;28;20062;-69
2023/09/01 07:25:13;;;;;;;0.30;0.30;;;;;;;25.01;46.38;99704.09;4987508;28;20038;-71
2023/09/01 07:27:39;;;;;;;0.40;0.40;;;;;;;25.21;45.18;99692.81;4983339;28;20054;-70
2023/09/01 07:30:07;;;;;;;0.30;0.30;;;;;;;25.17;45.44;99689.16;4986671;28;20577;-70
2023/09/01 07:32:33;;;;;;;0.30;0.30;;;;;;;25.38;45.30;99690.63;4984332;28;20046;-69
2023/09/01 07:34:59;;;;;;;0.30;0.30;;;;;;;25.39;45.38;99681.88;4988362;28;20038;-68
2023/09/01 07:37:27;;;;;;;0.30;0.30;;;;;;;25.67;44.54;99691.03;4988494;28;20043;-71
2023/09/01 07:39:53;;;;;;;0.40;0.40;;;;;;;25.71;44.16;99684.31;4986423;28;20054;-72
2023/09/01 07:42:19;;;;;;;0.30;0.30;;;;;;;25.94;43.92;99693.78;4986768;28;20049;-71
2023/09/01 07:44:46;;;;;;;0.30;0.30;;;;;;;26.08;43.24;99690.31;4979702;28;20051;-69
2023/09/01 07:47:12;;;;;;;;;;;;;;;26.14;43.13;99694.38;4988637;28;20143;-70
2023/09/01 07:49:39;;;;;;;0.30;0.30;;;;;;;26.13;43.43;99695.56;4987878;28;19925;-69
2023/09/01 07:52:05;;;;;;;0.30;0.30;;;;;;;26.24;42.83;99693.72;4986326;28;20050;-71
2023/09/01 07:54:33;;;;;;;0.30;0.30;;;;;;;26.13;43.14;99690.78;4986050;28;20056;-71
2023/09/01 07:56:59;;;;;;;0.30;0.30;;;;;;;26.34;42.83;99692.19;4985095;28;20061;-72
2023/09/01 07:59:26;;;;;;;0.40;0.40;;;;;;;26.41;41.84;99702.69;4988625;28;20046;-72
2023/09/01 08:01:52;;;;;;;0.40;0.40;;;;;;;26.37;41.91;99699.03;4987755;28;20046;-72
2023/09/01 08:04:19;;;;;;;0.40;0.40;;;;;;;26.37;41.86;99688.63;4987782;28;20046;-71
2023/09/01 08:06:47;;;;;;;0.40;0.40;;;;;;;26.65;40.63;99698.50;4988628;28;20050;-74
2023/09/01 08:09:13;;;;;;;0.40;0.40;;;;;;;26.65;41.08;99692.88;4986793;28;20116;-71
2023/09/01 08:11:40;;;;;;;0.40;0.40;;;;;;;27.13;40.60;99696.88;4987203;28;20050;-72
2023/09/01 08:14:07;;;;;;;0.30;0.30;;;;;;;27.50;39.70;99695.91;4987257;28;20105;-71
2023/09/01 08:16:33;;;;;;;0.40;0.40;;;;;;;27.54;39.35;99693.13;4992016;28;20035;-72
2023/09/01 08:19:01;;;;;;;0.50;0.50;;;;;;;27.73;39.38;99686.38;4992766;28;20069;-71
2023/09/01 08:21:30;;;;;;;0.40;0.40;;;;;;;27.98;38.71;99685.69;4988860;28;20061;-71
2023/09/01 08:23:56;;;;;;;0.40;0.40;;;;;;;28.30;37.61;99685.75;4982532;28;20521;-70
2023/09/01 08:26:23;;;;;;;0.50;0.50;;;;;;;28.41;37.44;99682.97;4981047;28;20042;-71
2023/09/01 08:28:50;;;;;;;0.40;0.40;;;;;;;28.85;36.51;99688.63;4979592;28;20305;-71
2023/09/01 08:31:16;;;;;;;0.40;0.40;;;;;;;29.03;35.68;99688.59;4978301;28;20046;-70
2023/09/01 08:33:43;;;;;;;0.40;0.40;;;;;;;29.25;35.50;99675.28;4975931;28;20316;-71
2023/09/01 08:36:09;;;;;;;0.50;0.50;;;;;;;29.48;35.21;99684.50;4985573;28;20558;-71
2023/09/01 08:38:35;;;;;;;0.50;0.50;;;;;;;29.39;34.63;99688.50;4988471;28;20034;-72
2023/09/01 08:41:03;;;;;;;0.50;0.50;;;;;;;29.21;34.53;99682.94;4970818;28;20073;-72
2023/09/01 08:43:34;;;;;;;0.47;0.47;;;;;;;29.04;34.66;99684.59;4990315;28;20038;-72
2023/09/01 08:46:06;;;;;;;0.55;0.55;;;;;;;28.93;34.97;99676.16;4989140;28;20046;-72
2023/09/01 08:48:33;;;;;;;0.50;0.50;;;;;;;29.11;34.06;99678.97;4982722;28;20050;-71
2023/09/01 08:50:58;;;;;;;;;;;;;;;29.32;33.85;99677.28;4983992;28;20142;-72
2023/09/01 08:53:25;;;;;;;0.50;0.50;;;;;;;29.29;33.99;99680.91;4988907;28;20084;-70
2023/09/01 08:55:52;;;;;;;0.50;0.50;;;;;;;29.38;33.52;99683.31;4983188;28;20312;-71
2023/09/01 08:58:19;;;;;;;0.60;0.60;;;;;;;29.61;33.29;99676.41;4989644;28;20417;-71
2023/09/01 09:00:45;;;;;;;0.50;0.50;;;;;;;29.74;32.60;99683.19;4977107;28;20053;-72
2023/09/01 09:03:13;;;;;;;0.45;0.45;;;;;;;29.60;33.24;99686.88;4971680;28;20514;-69
2023/09/01 09:05:40;;;;;;;0.60;0.60;;;;;;;29.71;33.11;99689.66;4989456;28;20065;-71
2023/09/01 09:08:07;;;;;;;0.50;0.50;;;;;;;29.80;32.90;99698.44;4988710;28;20489;-73
2023/09/01 09:10:34;;;;;;;0.50;0.50;;;;;;;29.84;32.97;99687.97;4990447;28;20047;-72
2023/09/01 09:13:02;;;;;;;0.50;0.50;;;;;;;29.30;33.06;99686.13;4972191;28;20042;-71
2023/09/01 09:15:28;;;;;;;0.60;0.60;;;;;;;28.94;33.89;99674.97;4996649;28;20046;-71
2023/09/01 09:17:54;;;;;;;0.50;0.50;;;;;;;28.89;34.11;99686.63;4988383;28;20125;-71
2023/09/01 09:20:22;;;;;;;0.60;0.60;;;;;;;28.95;34.43;99689.81;4983822;28;20046;-71
2023/09/01 09:22:50;;;;;;;0.60;0.60;;;;;;;29.26;33.82;99682.53;4987944;28;20044;-71
2023/09/01 09:25:25;;;;;;;0.60;0.60;;;;;;;29.66;32.44;99688.06;4984546;28;20038;-71
2023/09/01 09:27:52;;;;;;;0.60;0.60;;;;;;;29.62;32.19;99678.81;4980898;28;20062;-71
2023/09/01 09:30:18;;;;;;;0.60;0.60;;;;;;;29.80;32.44;99675.13;4990160;28;20058;-71
2023/09/01 09:32:44;;;;;;;0.60;0.60;;;;;;;29.83;31.45;99677.91;4988848;28;20101;-72
2023/09/01 09:35:13;;;;;;;0.60;0.60;;;;;;;29.61;32.40;99665.94;4987998;28;20061;-70
2023/09/01 09:37:41;;;;;;;0.60;0.60;;;;;;;29.79;31.41;99690.41;4984934;28;20055;-71
2023/09/01 09:40:13;;;;;;;0.70;0.70;;;;;;;29.34;32.17;99679.69;4990283;28;20042;-70
2023/09/01 09:42:41;;;;;;;0.60;0.60;;;;;;;29.22;32.09;99672.47;4986513;28;20629;-71
2023/09/01 09:45:22;;;;;;;0.60;0.60;;;;;;;29.72;31.91;99671.53;4988157;28;20421;-72
2023/09/01 09:47:49;;;;;;;0.60;0.60;;;;;;;30.42;31.15;99669.91;4985200;28;20177;-71
2023/09/01 09:50:16;;;;;;;;;;;;;;;31.49;29.43;99655.19;4978161;28;20058;-71
2023/09/01 09:52:47;;;;;;;0.70;0.70;;;;;;;31.48;28.96;99664.13;4985246;28;19999;-71
2023/09/01 09:55:20;;;;;;;0.60;0.60;;;;;;;31.45;28.49;99673.41;5003869;28;20182;-70
2023/09/01 09:57:49;;;;;;;0.60;0.60;;;;;;;31.18;29.13;99657.94;4985090;28;20149;-70
2023/09/01 10:00:20;;;;;;;0.60;0.60;;;;;;;31.32;28.83;99659.84;4988304;28;20035;-71
2023/09/01 10:02:52;;;;;;;0.60;0.60;;;;;;;31.75;28.73;99661.34;4986170;28;20545;-72
2023/09/01 10:05:20;;;;;;;0.60;0.60;;;;;;;31.73;28.46;99666.63;4980938;28;20620;-71
2023/09/01 10:07:48;;;;;;;0.60;0.60;;;;;;;31.81;28.01;99656.03;4978507;28;20054;-70
2023/09/01 10:10:14;;;;;;;0.60;0.60;;;;;;;31.68;28.64;99664.25;4987538;28;20034;-72
2023/09/01 10:12:41;;;;;;;0.60;0.60;;;;;;;32.01;28.11;99661.00;4982115;28;20051;-71
2023/09/01 10:15:10;;;;;;;0.55;0.55;;;;;;;32.82;27.02;99674.28;4988709;28;20046;-71
2023/09/01 10:17:38;;;;;;;0.60;0.60;;;;;;;33.04;26.47;99665.44;4988864;28;20140;-72
2023/09/01 10:20:07;;;;;;;0.60;0.60;;;;;;;33.05;26.27;99664.19;4986277;28;20138;-72
2023/09/01 10:22:38;;;;;;;0.60;0.60;;;;;;;32.45;26.98;99659.16;4966652;28;20494;-71
2023/09/01 10:25:17;;;;;;;0.50;0.50;;;;;;;32.62;26.78;99668.56;4980368;28;20529;-71
2023/09/01 10:28:02;;;;;;;0.60;0.60;;;;;;;32.93;26.69;99653.50;4980898;28;20481;-71
2023/09/01 10:30:30;;;;;;;0.60;0.60;;;;;;;32.93;26.49;99651.47;4988273;28;20061;-71
2023/09/01 10:33:06;;;;;;;0.60;0.60;;;;;;;33.18;26.06;99649.41;4986844;28;20055;-72
2023/09/01 10:35:37;;;;;;;0.60;0.60;;;;;;;33.40;25.55;99638.41;4980777;28;20050;-71
2023/09/01 10:38:11;;;;;;;0.60;0.60;;;;;;;33.51;25.80;99656.03;4974328;28;20058;-70
2023/09/01 10:40:43;;;;;;;0.70;0.70;;;;;;;33.57;25.69;99656.31;4986258;28;20242;-72
2023/09/01 10:43:11;;;;;;;0.70;0.70;;;;;;;33.66;25.73;99653.69;4977527;28;20091;-71
2023/09/01 10:45:37;;;;;;;0.70;0.70;;;;;;;33.77;25.64;99650.63;4986133;28;20117;-70
2023/09/01 10:48:04;;;;;;;0.80;0.80;;;;;;;34.43;25.19;99643.44;4971845;28;20046;-70
2023/09/01 10:50:33;;;;;;;0.80;0.80;;;;;;;35.08;24.19;99647.47;4970802;28;20042;-71
2023/09/01 10:53:28;;;;;;;0.80;0.80;;;;;;;34.98;24.24;99628.69;4977322;28;20551;-71
2023/09/01 10:56:10;;;;;;;0.90;0.90;;;;;;;34.71;24.45;99633.41;4993050;28;20042;-69
2023/09/01 10:58:44;;;;;;;0.90;0.90;;;;;;;34.91;24.40;99638.19;4975328;28;20421;-71
2023/09/01 11:01:33;;;;;;;1.00;1.00;;;;;;;35.16;23.55;99629.00;4982479;28;20529;-69
2023/09/01 11:04:27;;;;;;;1.00;1.00;;;;;;;34.89;23.59;99621.59;4966864;28;20053;-70
2023/09/01 11:07:03;;;;;;;1.00;1.00;;;;;;;35.07;23.66;99628.84;4977123;28;20099;-72
2023/09/01 11:09:47;;;;;;;1.10;1.10;;;;;;;35.33;23.09;99631.78;4970175;28;20046;-71
2023/09/01 11:12:15;;;;;;;1.20;1.10;;;;;;;35.47;23.24;99625.66;4982587;28;20517;-72
2023/09/01 11:14:56;;;;;;;1.10;1.10;;;;;;;35.78;22.62;99627.19;4983265;28;20065;-72
2023/09/01 11:17:40;;;;;;;1.10;1.10;;;;;;;35.66;22.99;99617.41;4984216;28;20078;-70
2023/09/01 11:20:11;;;;;;;1.10;1.10;;;;;;;35.84;22.52;99616.06;4983112;28;20072;-71
2023/09/01 11:22:38;;;;;;;1.10;1.10;;;;;;;35.80;22.68;99619.00;4986758;28;20468;-70
2023/09/01 11:25:08;;;;;;;1.23;1.17;;;;;;;36.05;22.47;99620.31;4974904;28;20038;-70
2023/09/01 11:27:36;;;;;;;1.30;1.20;;;;;;;36.66;22.08;99593.91;4954579;28;20062;-70
2023/09/01 11:30:05;;;;;;;1.30;1.20;;;;;;;37.14;21.27;99603.16;4970396;28;20438;-72
2023/09/01 11:32:32;;;;;;;1.30;1.20;;;;;;;37.39;20.79;99612.03;4973457;28;20518;-69
2023/09/01 11:34:59;;;;;;;1.30;1.20;;;;;;;37.63;20.98;99620.09;4975423;28;20452;-70
2023/09/01 11:37:39;;;;;;;1.30;1.20;;;;;;;38.27;19.40;99622.44;4998480;28;20054;-70
2023/09/01 11:40:09;;;;;;;1.30;1.20;;;;;;;37.73;19.92;99621.75;4970391;28;20050;-71
2023/09/01 11:42:39;;;;;;;1.40;1.30;;;;;;;37.62;20.17;99610.75;4985966;28;20429;-70